createdAt,value
2022-09-28T00:02:02.627Z,86421.20
2022-09-28T00:04:33.561Z,86421.20
2022-09-28T00:07:02.272Z,86416.80
2022-09-28T00:09:31.089Z,86421.60
2022-09-28T00:12:00.295Z,86417.00
2022-09-28T00:14:28.888Z,86415.00
2022-09-28T00:16:57.416Z,86415.40
2022-09-28T00:19:25.665Z,86411.20
2022-09-28T00:21:54.089Z,86414.40
2022-09-28T00:24:27.297Z,86412.60
2022-09-28T00:27:03.303Z,86408.20
2022-09-28T00:29:38.145Z,86412.00
2022-09-28T00:32:13.757Z,86414.60
2022-09-28T00:34:49.362Z,86412.40
2022-09-28T00:37:22.113Z,86412.80
2022-09-28T00:39:51.217Z,86412.00
2022-09-28T00:42:24.655Z,86405.60
2022-09-28T00:44:58.382Z,86409.40
2022-09-28T00:47:44.599Z,86408.00
2022-09-28T00:50:19.795Z,86413.40
2022-09-28T00:53:35.208Z,86407.20
2022-09-28T00:56:12.106Z,86414.60
2022-09-28T00:58:53.773Z,86412.80
2022-09-28T01:01:23.379Z,86420.20
2022-09-28T01:03:52.483Z,86414.80
2022-09-28T01:06:24.539Z,86419.20
2022-09-28T01:08:59.360Z,86424.00
2022-09-28T01:11:31.590Z,86428.60
2022-09-28T01:14:01.919Z,86428.20
2022-09-28T01:16:48.753Z,86434.40
2022-09-28T01:19:41.847Z,86436.80
2022-09-28T01:22:32.492Z,86439.00
2022-09-28T01:25:33.531Z,86432.20
2022-09-28T01:28:17.679Z,86437.60
2022-09-28T01:31:08.016Z,86442.00
2022-09-28T01:33:48.073Z,86439.80
2022-09-28T01:36:30.773Z,86440.00
2022-09-28T01:39:12.353Z,86445.60
2022-09-28T01:41:46.212Z,86441.40
2022-09-28T01:44:20.753Z,86447.20
2022-09-28T01:46:52.537Z,86453.00
2022-09-28T01:49:43.940Z,86451.40
2022-09-28T01:52:28.246Z,86446.60
2022-09-28T01:55:27.469Z,86446.60
2022-09-28T01:58:33.477Z,86453.80
2022-09-28T02:01:12.266Z,86455.00
2022-09-28T02:04:28.230Z,86457.40
2022-09-28T02:07:19.323Z,86463.60
2022-09-28T02:09:58.829Z,86461.00
2022-09-28T02:12:54.966Z,86471.20
2022-09-28T02:15:52.719Z,86469.40
2022-09-28T02:18:21.577Z,86477.60
2022-09-28T02:21:22.598Z,86472.80
2022-09-28T02:23:59.193Z,86474.00
2022-09-28T02:26:35.938Z,86474.00
2022-09-28T02:29:05.138Z,86478.00
2022-09-28T02:31:33.544Z,86478.60
2022-09-28T02:34:02.295Z,86476.80
2022-09-28T02:36:32.125Z,86479.80
2022-09-28T02:39:02.556Z,86486.00
2022-09-28T02:41:55.295Z,86482.20
2022-09-28T02:44:54.079Z,86482.60
2022-09-28T02:48:41.537Z,86487.00
2022-09-28T02:51:31.265Z,86489.00
2022-09-28T02:54:18.931Z,86489.20
2022-09-28T02:57:32.268Z,86492.20
2022-09-28T03:00:12.322Z,86494.40
2022-09-28T03:03:10.205Z,86499.80
2022-09-28T03:05:48.162Z,86498.40
2022-09-28T03:08:32.669Z,86499.20
2022-09-28T03:11:10.607Z,86496.80
2022-09-28T03:13:39.695Z,86501.80
2022-09-28T03:16:18.046Z,86501.60
2022-09-28T03:18:48.140Z,86501.20
2022-09-28T03:21:17.602Z,86501.40
2022-09-28T03:23:47.796Z,86505.60
2022-09-28T03:26:17.387Z,86506.80
2022-09-28T03:28:46.259Z,86507.20
2022-09-28T03:31:14.749Z,86506.20
2022-09-28T03:33:43.538Z,86515.80
2022-09-28T03:36:12.361Z,86513.80
2022-09-28T03:38:40.969Z,86515.80
2022-09-28T03:41:09.928Z,86521.40
2022-09-28T03:43:38.342Z,86529.60
2022-09-28T03:46:07.524Z,86524.40
2022-09-28T03:48:38.463Z,86525.60
2022-09-28T03:51:10.384Z,86529.00
2022-09-28T03:53:39.857Z,86531.00
2022-09-28T03:56:17.981Z,86535.80
2022-09-28T03:58:46.601Z,86532.60
2022-09-28T04:01:19.658Z,86532.80
2022-09-28T04:03:54.225Z,86533.20
2022-09-28T04:06:23.768Z,86542.00
2022-09-28T04:08:52.444Z,86536.20
2022-09-28T04:11:21.044Z,86537.80
2022-09-28T04:13:51.049Z,86539.80
2022-09-28T04:16:19.968Z,86544.20
2022-09-28T04:18:49.110Z,86543.00
2022-09-28T04:21:20.859Z,86545.80
2022-09-28T04:23:49.750Z,86541.20
2022-09-28T04:26:23.217Z,86545.60
2022-09-28T04:29:11.048Z,86540.00
2022-09-28T04:31:50.317Z,86545.20
2022-09-28T04:34:22.652Z,86550.20
2022-09-28T04:36:51.584Z,86548.40
2022-09-28T04:39:20.404Z,86549.00
2022-09-28T04:41:51.578Z,86549.80
2022-09-28T04:44:20.131Z,86553.60
2022-09-28T04:46:48.557Z,86559.80
2022-09-28T04:49:17.862Z,86556.80
2022-09-28T04:51:46.496Z,86557.80
2022-09-28T04:54:15.457Z,86552.80
2022-09-28T04:56:43.841Z,86557.00
2022-09-28T04:59:14.044Z,86556.00
2022-09-28T05:01:42.870Z,86557.80
2022-09-28T05:04:11.529Z,86557.20
2022-09-28T05:06:39.960Z,86558.00
2022-09-28T05:09:10.232Z,86558.80
2022-09-28T05:11:38.753Z,86562.40
2022-09-28T05:14:07.651Z,86555.80
2022-09-28T05:16:36.949Z,86557.00
2022-09-28T05:19:06.851Z,86559.80
2022-09-28T05:21:35.769Z,86560.20
2022-09-28T05:24:07.865Z,86559.60
2022-09-28T05:26:36.677Z,86556.40
2022-09-28T05:29:05.475Z,86566.00
2022-09-28T05:31:34.258Z,86563.20
2022-09-28T05:34:03.477Z,86569.00
2022-09-28T05:36:32.914Z,86568.80
2022-09-28T05:39:01.842Z,86570.00
2022-09-28T05:41:30.349Z,86572.80
2022-09-28T05:43:59.351Z,86575.80
2022-09-28T05:46:28.333Z,86573.80
2022-09-28T05:48:57.227Z,86571.60
2022-09-28T05:51:25.790Z,86576.60
2022-09-28T05:54:01.829Z,86574.00
2022-09-28T05:56:34.241Z,86574.60
2022-09-28T05:59:05.767Z,86577.40
2022-09-28T06:01:34.375Z,86582.00
2022-09-28T06:04:02.972Z,86582.40
2022-09-28T06:06:31.498Z,86584.80
2022-09-28T06:09:00.075Z,86585.80
2022-09-28T06:11:28.780Z,86584.00
2022-09-28T06:13:57.338Z,86586.00
2022-09-28T06:16:26.278Z,86590.00
2022-09-28T06:18:55.198Z,86591.60
2022-09-28T06:21:23.836Z,86595.20
2022-09-28T06:23:52.312Z,86590.80
2022-09-28T06:26:21.030Z,86587.40
2022-09-28T06:28:49.797Z,86590.40
2022-09-28T06:31:20.018Z,86589.20
2022-09-28T06:33:52.869Z,86592.60
2022-09-28T06:36:21.435Z,86589.80
2022-09-28T06:38:50.271Z,86593.40
2022-09-28T06:41:19.189Z,86595.40
2022-09-28T06:43:49.689Z,86591.80
2022-09-28T06:46:18.218Z,86594.00
2022-09-28T06:48:46.986Z,86588.40
2022-09-28T06:51:15.583Z,86593.20
2022-09-28T06:53:44.292Z,86590.40
2022-09-28T06:56:13.332Z,86584.80
2022-09-28T06:58:41.869Z,86584.20
2022-09-28T07:01:12.325Z,86581.80
2022-09-28T07:03:41.064Z,86580.40
2022-09-28T07:06:13.274Z,86583.00
2022-09-28T07:08:41.812Z,86580.80
2022-09-28T07:11:10.390Z,86582.20
2022-09-28T07:13:50.351Z,86579.40
2022-09-28T07:16:26.931Z,86577.60
2022-09-28T07:19:00.051Z,86582.80
2022-09-28T07:21:30.770Z,86582.60
2022-09-28T07:24:00.311Z,86586.20
2022-09-28T07:26:28.852Z,86588.40
2022-09-28T07:28:57.595Z,86588.00
2022-09-28T07:31:26.046Z,86580.40
2022-09-28T07:33:54.740Z,86588.40
2022-09-28T07:36:23.837Z,86578.60
2022-09-28T07:38:52.743Z,86584.20
2022-09-28T07:41:33.003Z,86583.60
2022-09-28T07:44:07.153Z,86580.80
2022-09-28T07:46:37.790Z,86585.20
2022-09-28T07:49:09.726Z,86591.20
2022-09-28T07:51:44.652Z,86592.40
2022-09-28T07:54:13.034Z,86592.40
2022-09-28T07:56:41.398Z,86589.60
2022-09-28T07:59:10.153Z,86594.60
2022-09-28T08:01:39.064Z,86597.40
2022-09-28T08:04:07.579Z,86593.60
2022-09-28T08:06:36.267Z,86600.80
2022-09-28T08:09:04.817Z,86596.20
2022-09-28T08:11:33.332Z,86598.00
2022-09-28T08:14:02.585Z,86594.40
2022-09-28T08:16:32.710Z,86598.80
2022-09-28T08:19:01.283Z,86598.00
2022-09-28T08:21:48.761Z,86595.00
2022-09-28T08:24:19.581Z,86596.60
2022-09-28T08:26:48.195Z,86596.60
2022-09-28T08:29:17.588Z,86595.20
2022-09-28T08:31:49.292Z,86598.40
2022-09-28T08:34:17.903Z,86598.00
2022-09-28T08:36:46.430Z,86597.60
2022-09-28T08:39:16.948Z,86596.20
2022-09-28T08:42:22.788Z,86594.20
2022-09-28T08:44:58.301Z,86592.40
2022-09-28T08:48:09.230Z,86588.80
2022-09-28T08:51:06.530Z,86584.40
2022-09-28T08:54:09.501Z,86585.80
2022-09-28T08:57:02.014Z,86585.20
2022-09-28T08:59:54.889Z,86590.00
2022-09-28T09:02:35.112Z,86592.20
2022-09-28T09:05:15.233Z,86587.60
2022-09-28T09:08:23.745Z,86588.80
2022-09-28T09:11:08.608Z,86587.40
2022-09-28T09:14:30.759Z,86589.80
2022-09-28T09:17:41.392Z,86588.40
2022-09-28T09:20:34.954Z,86590.80
2022-09-28T09:23:39.821Z,86593.40
2022-09-28T09:26:26.344Z,86588.60
2022-09-28T09:29:23.544Z,86584.20
2022-09-28T09:32:27.607Z,86593.20
2022-09-28T09:35:20.159Z,86598.80
2022-09-28T09:38:40.201Z,86596.60
2022-09-28T09:41:35.637Z,86598.00
2022-09-28T09:44:39.164Z,86597.00
2022-09-28T09:47:24.751Z,86601.00
2022-09-28T09:50:34.281Z,86602.80
2022-09-28T09:53:25.433Z,86601.80
2022-09-28T09:56:25.091Z,86600.00
2022-09-28T09:59:02.958Z,86603.80
2022-09-28T10:01:41.046Z,86609.60
2022-09-28T10:04:38.530Z,86605.20
2022-09-28T10:07:15.402Z,86604.00
2022-09-28T10:09:48.502Z,86607.60
2022-09-28T10:12:22.586Z,86611.60
2022-09-28T10:14:51.396Z,86612.80
2022-09-28T10:17:27.368Z,86609.60
2022-09-28T10:19:57.436Z,86607.00
2022-09-28T10:22:29.086Z,86609.20
2022-09-28T10:24:59.123Z,86604.80
2022-09-28T10:27:36.367Z,86603.60
2022-09-28T10:30:19.346Z,86600.20
2022-09-28T10:32:52.937Z,86601.00
2022-09-28T10:35:25.329Z,86605.60
2022-09-28T10:38:17.621Z,86606.20
2022-09-28T10:40:56.473Z,86609.20
2022-09-28T10:43:39.951Z,86608.00
2022-09-28T10:46:14.630Z,86600.00
2022-09-28T10:49:10.002Z,86608.60
2022-09-28T10:51:57.035Z,86608.80
2022-09-28T10:54:28.964Z,86607.40
2022-09-28T10:56:59.762Z,86604.40
2022-09-28T10:59:31.079Z,86607.40
2022-09-28T11:02:26.477Z,86604.80
2022-09-28T11:05:06.112Z,86606.20
2022-09-28T11:07:47.427Z,86604.40
2022-09-28T11:10:29.168Z,86605.00
2022-09-28T11:12:59.061Z,86607.40
2022-09-28T11:15:34.197Z,86610.00
2022-09-28T11:18:31.858Z,86607.80
2022-09-28T11:21:16.526Z,86611.40
2022-09-28T11:24:19.527Z,86610.20
2022-09-28T11:26:53.284Z,86612.00
2022-09-28T11:29:44.610Z,86610.60
2022-09-28T11:32:15.865Z,86613.60
2022-09-28T11:34:59.236Z,86618.60
2022-09-28T11:37:46.597Z,86617.40
2022-09-28T11:41:08.140Z,86616.20
2022-09-28T11:43:42.262Z,86619.20
2022-09-28T11:46:22.402Z,86618.20
2022-09-28T11:49:02.554Z,86622.80
2022-09-28T11:51:41.237Z,86620.00
2022-09-28T11:54:21.165Z,86619.80
2022-09-28T11:56:52.759Z,86621.40
2022-09-28T12:00:21.205Z,86619.60
2022-09-28T12:03:21.482Z,86622.60
2022-09-28T12:06:02.944Z,86622.40
2022-09-28T12:08:38.813Z,86624.80
2022-09-28T12:11:27.824Z,86624.60
2022-09-28T12:14:01.134Z,86629.20
2022-09-28T12:20:22.587Z,86624.80
2022-09-28T12:23:17.842Z,86625.00
2022-09-28T12:25:59.370Z,86618.80
2022-09-28T12:28:43.282Z,86621.80
2022-09-28T12:31:29.327Z,86621.00
2022-09-28T12:34:03.759Z,86622.40
2022-09-28T12:37:09.373Z,86625.80
2022-09-28T12:40:04.157Z,86628.80
2022-09-28T12:43:18.045Z,86629.00
2022-09-28T12:46:16.192Z,86632.80
2022-09-28T12:52:24.406Z,86627.20
2022-09-28T12:55:21.017Z,86629.40
2022-09-28T12:57:55.344Z,86629.00
2022-09-28T13:00:31.681Z,86630.40
2022-09-28T13:03:59.713Z,86629.40
2022-09-28T13:07:03.762Z,86630.00
2022-09-28T13:09:48.899Z,86630.40
2022-09-28T13:13:14.543Z,86629.60
2022-09-28T13:16:02.550Z,86629.60
2022-09-28T13:19:05.325Z,86628.00
2022-09-28T13:21:55.723Z,86625.40
2022-09-28T13:24:33.349Z,86624.60
2022-09-28T13:27:15.935Z,86624.00
2022-09-28T13:29:45.300Z,86624.20
2022-09-28T13:32:15.465Z,86625.40
2022-09-28T13:34:49.416Z,86623.20
2022-09-28T13:37:17.823Z,86628.40
2022-09-28T13:39:46.395Z,86629.00
2022-09-28T13:42:53.496Z,86626.60
2022-09-28T13:45:38.706Z,86636.80
2022-09-28T13:48:15.792Z,86638.20
2022-09-28T13:51:14.962Z,86637.20
2022-09-28T13:54:25.176Z,86635.00
2022-09-28T13:57:34.059Z,86642.40
2022-09-28T14:00:29.847Z,86639.60
2022-09-28T14:03:24.793Z,86642.00
2022-09-28T14:06:35.376Z,86644.40
2022-09-28T14:09:19.238Z,86638.60
2022-09-28T14:12:24.771Z,86640.40
2022-09-28T14:14:53.787Z,86637.00
2022-09-28T14:17:24.822Z,86641.40
2022-09-28T14:20:15.665Z,86640.80
2022-09-28T14:23:25.632Z,86640.20
2022-09-28T14:26:42.345Z,86646.40
2022-09-28T14:29:32.813Z,86645.80
2022-09-28T14:32:36.490Z,86650.40
2022-09-28T14:35:37.761Z,86654.60
2022-09-28T14:38:36.942Z,86651.80
2022-09-28T14:41:18.308Z,86650.20
2022-09-28T14:43:47.489Z,86651.60
2022-09-28T14:46:17.371Z,86647.40
2022-09-28T14:48:58.745Z,86651.00
2022-09-28T14:51:27.146Z,86648.80
2022-09-28T14:54:06.606Z,86649.60
2022-09-28T14:56:49.969Z,86652.20
2022-09-28T14:59:31.280Z,86652.60
2022-09-28T15:02:17.316Z,86651.80
2022-09-28T15:04:58.324Z,86656.00
2022-09-28T15:07:44.236Z,86660.80
2022-09-28T15:10:46.489Z,86663.20
2022-09-28T15:13:27.638Z,86658.80
2022-09-28T15:16:13.671Z,86658.80
2022-09-28T15:19:31.946Z,86660.80
2022-09-28T15:22:01.094Z,86659.00
2022-09-28T15:24:35.563Z,86660.40
2022-09-28T15:27:16.369Z,86663.60
2022-09-28T15:30:03.441Z,86663.80
2022-09-28T15:32:32.730Z,86659.00
2022-09-28T15:35:20.844Z,86663.00
2022-09-28T15:37:52.383Z,86657.00
2022-09-28T15:40:39.324Z,86659.20
2022-09-28T15:43:29.711Z,86662.80
2022-09-28T15:46:29.167Z,86659.60
2022-09-28T15:49:02.071Z,86661.00
2022-09-28T15:51:45.642Z,86653.20
2022-09-28T15:54:26.127Z,86651.80
2022-09-28T15:57:02.866Z,86657.40
2022-09-28T15:59:39.813Z,86655.20
2022-09-28T16:02:26.317Z,86659.20
2022-09-28T16:05:01.826Z,86656.00
2022-09-28T16:07:40.084Z,86653.40
2022-09-28T16:10:15.384Z,86651.40
2022-09-28T16:12:46.349Z,86648.00
2022-09-28T16:15:24.192Z,86644.60
2022-09-28T16:18:03.028Z,86645.60
2022-09-28T16:20:35.952Z,86640.40
2022-09-28T16:23:27.182Z,86640.80
2022-09-28T16:26:06.697Z,86642.40
2022-09-28T16:28:38.317Z,86639.00
2022-09-28T16:31:34.837Z,86635.20
2022-09-28T16:34:20.322Z,86633.40
2022-09-28T16:36:52.091Z,86631.40
2022-09-28T16:39:22.188Z,86626.00
2022-09-28T16:42:02.181Z,86622.20
2022-09-28T16:44:33.086Z,86622.40
2022-09-28T16:47:02.074Z,86623.80
2022-09-28T16:49:32.515Z,86619.80
2022-09-28T16:52:02.381Z,86615.60
2022-09-28T16:54:49.379Z,86611.20
2022-09-28T16:57:18.118Z,86611.60
2022-09-28T16:59:46.607Z,86609.40
2022-09-28T17:05:20.510Z,86598.40
2022-09-28T17:08:19.201Z,86594.80
2022-09-28T17:11:16.994Z,86591.40
2022-09-28T17:13:49.161Z,86598.20
2022-09-28T17:16:37.100Z,86595.40
2022-09-28T17:19:26.501Z,86586.80
2022-09-28T17:21:55.095Z,86585.80
2022-09-28T17:24:23.615Z,86587.80
2022-09-28T17:26:53.594Z,86586.80
2022-09-28T17:29:24.001Z,86587.40
2022-09-28T17:31:53.515Z,86583.20
2022-09-28T17:34:22.248Z,86575.00
2022-09-28T17:36:51.325Z,86573.60
2022-09-28T17:39:21.020Z,86575.20
2022-09-28T17:41:49.862Z,86571.40
2022-09-28T17:44:20.834Z,86571.80
2022-09-28T17:46:51.406Z,86569.40
2022-09-28T17:49:20.453Z,86567.80
2022-09-28T17:51:50.575Z,86563.00
2022-09-28T17:54:21.482Z,86563.40
2022-09-28T17:56:50.132Z,86563.00
2022-09-28T17:59:20.039Z,86563.00
2022-09-28T18:01:49.081Z,86556.20
2022-09-28T18:04:47.084Z,86554.40
2022-09-28T18:07:07.343Z,86544.00
2022-09-28T18:09:36.534Z,86545.80
2022-09-28T18:12:07.313Z,86544.00
2022-09-28T18:14:36.189Z,86542.00
2022-09-28T18:17:04.957Z,86535.40
2022-09-28T18:19:33.525Z,86526.40
2022-09-28T18:22:01.960Z,86523.60
2022-09-28T18:24:30.585Z,86526.00
2022-09-28T18:26:59.449Z,86519.60
2022-09-28T18:29:32.258Z,86512.80
2022-09-28T18:32:02.836Z,86509.60
2022-09-28T18:34:31.349Z,86509.40
2022-09-28T18:36:59.821Z,86509.40
2022-09-28T18:39:28.207Z,86510.00
2022-09-28T18:41:56.683Z,86509.00
2022-09-28T18:44:25.096Z,86500.00
2022-09-28T18:46:53.683Z,86495.80
2022-09-28T18:49:23.782Z,86492.60
2022-09-28T18:51:52.310Z,86490.60
2022-09-28T18:54:20.863Z,86489.80
2022-09-28T18:56:51.617Z,86490.40
2022-09-28T18:59:20.004Z,86481.60
2022-09-28T19:01:48.611Z,86476.40
2022-09-28T19:04:17.916Z,86478.20
2022-09-28T19:06:51.915Z,86476.00
2022-09-28T19:09:23.564Z,86471.60
2022-09-28T19:11:52.595Z,86469.00
2022-09-28T19:14:21.898Z,86466.80
2022-09-28T19:16:50.610Z,86465.20
2022-09-28T19:19:21.525Z,86461.40
2022-09-28T19:21:50.819Z,86462.60
2022-09-28T19:24:20.478Z,86464.60
2022-09-28T19:26:50.309Z,86462.60
2022-09-28T19:29:19.241Z,86459.80
2022-09-28T19:31:49.906Z,86460.80
2022-09-28T19:34:19.186Z,86454.20
2022-09-28T19:36:47.748Z,86453.00
2022-09-28T19:39:16.828Z,86450.40
2022-09-28T19:41:57.698Z,86444.80
2022-09-28T19:44:37.431Z,86440.80
2022-09-28T19:47:10.328Z,86434.80
2022-09-28T19:49:42.048Z,86438.40
2022-09-28T19:52:17.317Z,86426.80
2022-09-28T19:55:00.694Z,86430.20
2022-09-28T19:57:32.474Z,86429.00
2022-09-28T20:00:04.240Z,86419.20
2022-09-28T20:02:34.525Z,86418.60
2022-09-28T20:05:03.357Z,86413.60
2022-09-28T20:07:33.715Z,86416.00
2022-09-28T20:10:03.146Z,86410.40
2022-09-28T20:12:31.478Z,86403.60
2022-09-28T20:15:00.112Z,86399.80
2022-09-28T20:17:28.546Z,86399.20
2022-09-28T20:19:57.913Z,86394.60
2022-09-28T20:22:26.407Z,86390.00
2022-09-28T20:24:54.908Z,86395.60
2022-09-28T20:27:26.427Z,86383.00
2022-09-28T20:29:55.474Z,86377.80
2022-09-28T20:32:23.966Z,86380.60
2022-09-28T20:34:52.420Z,86374.80
2022-09-28T20:37:21.144Z,86368.00
2022-09-28T20:39:49.663Z,86367.80
2022-09-28T20:42:18.026Z,86364.20
2022-09-28T20:44:47.007Z,86361.60
2022-09-28T20:47:15.547Z,86362.80
2022-09-28T20:49:44.847Z,86365.00
2022-09-28T20:52:13.371Z,86362.20
2022-09-28T20:54:42.163Z,86357.60
2022-09-28T20:57:20.498Z,86359.20
2022-09-28T20:59:54.361Z,86352.00
2022-09-28T21:02:25.112Z,86349.20
2022-09-28T21:04:54.428Z,86352.40
2022-09-28T21:07:22.772Z,86349.80
2022-09-28T21:09:51.470Z,86346.00
2022-09-28T21:12:19.999Z,86343.20
2022-09-28T21:14:48.455Z,86342.00
2022-09-28T21:17:17.004Z,86342.20
2022-09-28T21:19:45.534Z,86344.20
2022-09-28T21:22:14.195Z,86338.80
2022-09-28T21:24:42.858Z,86339.20
2022-09-28T21:27:11.365Z,86337.40
2022-09-28T21:29:39.919Z,86335.60
2022-09-28T21:32:08.808Z,86333.20
2022-09-28T21:34:37.217Z,86332.20
2022-09-28T21:37:06.774Z,86325.20
2022-09-28T21:39:50.884Z,86327.20
2022-09-28T21:42:19.522Z,86334.00
2022-09-28T21:47:30.455Z,86328.60
2022-09-28T21:52:46.949Z,86324.00
2022-09-28T21:55:15.752Z,86325.60
2022-09-28T21:57:47.531Z,86318.40
2022-09-28T22:00:25.589Z,86319.80
2022-09-28T22:02:54.874Z,86315.60
2022-09-28T22:05:23.529Z,86312.00
2022-09-28T22:07:52.060Z,86305.60
2022-09-28T22:10:20.509Z,86306.40
2022-09-28T22:12:50.969Z,86306.40
2022-09-28T22:15:19.507Z,86300.00
2022-09-28T22:17:47.784Z,86300.60
2022-09-28T22:20:16.497Z,86299.40
2022-09-28T22:22:52.997Z,86293.40
2022-09-28T22:25:22.082Z,86297.80
2022-09-28T22:27:50.668Z,86292.40
2022-09-28T22:30:19.300Z,86289.60
2022-09-28T22:32:47.703Z,86283.00
2022-09-28T22:35:17.013Z,86288.80
2022-09-28T22:37:45.697Z,86285.80
2022-09-28T22:40:14.355Z,86288.00
2022-09-28T22:42:43.591Z,86290.20
2022-09-28T22:45:12.161Z,86291.80
2022-09-28T22:47:43.765Z,86293.40
2022-09-28T22:50:12.799Z,86294.20
2022-09-28T22:52:41.306Z,86293.40
2022-09-28T22:55:10.612Z,86287.20
2022-09-28T22:57:39.749Z,86287.40
2022-09-28T23:00:09.655Z,86280.80
2022-09-28T23:02:38.975Z,86282.80
2022-09-28T23:05:08.272Z,86283.20
2022-09-28T23:07:36.852Z,86283.60
2022-09-28T23:10:06.403Z,86283.00
2022-09-28T23:12:36.061Z,86283.40
2022-09-28T23:15:05.158Z,86282.20
2022-09-28T23:17:33.657Z,86281.60
2022-09-28T23:20:02.409Z,86278.60
2022-09-28T23:22:31.701Z,86278.60
2022-09-28T23:25:01.111Z,86280.40
2022-09-28T23:27:29.710Z,86278.60
2022-09-28T23:29:58.507Z,86280.00
2022-09-28T23:32:31.788Z,86281.40
2022-09-28T23:35:00.722Z,86282.00
2022-09-28T23:37:29.967Z,86279.20
2022-09-28T23:39:58.675Z,86279.40
2022-09-28T23:42:27.176Z,86284.40
2022-09-28T23:44:56.213Z,86281.20
2022-09-28T23:47:25.006Z,86289.80
2022-09-28T23:49:53.604Z,86290.00
2022-09-28T23:52:22.173Z,86284.20
2022-09-28T23:54:50.940Z,86284.80
2022-09-28T23:57:19.449Z,86288.00
2022-09-28T23:59:47.871Z,86287.00
